sensor_id;sensor_type;location;lat;lon;timestamp;P1;durP1;ratioP1;P2;durP2;ratioP2
67696;SDS011;54486;51.442;6.778;2023-05-10T00:01:08;14.23;;;6.20;;
67696;SDS011;54486;51.442;6.778;2023-05-10T00:03:35;14.70;;;6.07;;
67696;SDS011;54486;51.442;6.778;2023-05-10T00:06:03;15.65;;;6.38;;
67696;SDS011;54486;51.442;6.778;2023-05-10T00:08:30;15.68;;;6.45;;
67696;SDS011;54486;51.442;6.778;2023-05-10T00:10:58;17.03;;;6.57;;
67696;SDS011;54486;51.442;6.778;2023-05-10T00:13:25;14.73;;;6.35;;
67696;SDS011;54486;51.442;6.778;2023-05-10T00:15:52;15.35;;;6.35;;
67696;SDS011;54486;51.442;6.778;2023-05-10T00:18:20;15.73;;;6.28;;
67696;SDS011;54486;51.442;6.778;2023-05-10T00:20:47;12.60;;;5.30;;
67696;SDS011;54486;51.442;6.778;2023-05-10T00:23:15;11.18;;;4.25;;
67696;SDS011;54486;51.442;6.778;2023-05-10T00:25:42;11.45;;;4.10;;
67696;SDS011;54486;51.442;6.778;2023-05-10T00:28:09;11.63;;;4.72;;
67696;SDS011;54486;51.442;6.778;2023-05-10T00:30:36;12.23;;;5.55;;
67696;SDS011;54486;51.442;6.778;2023-05-10T00:33:03;13.93;;;5.70;;
67696;SDS011;54486;51.442;6.778;2023-05-10T00:35:31;13.38;;;5.30;;
67696;SDS011;54486;51.442;6.778;2023-05-10T00:37:58;14.02;;;5.70;;
67696;SDS011;54486;51.442;6.778;2023-05-10T00:40:25;13.68;;;5.65;;
67696;SDS011;54486;51.442;6.778;2023-05-10T00:42:53;14.25;;;5.60;;
67696;SDS011;54486;51.442;6.778;2023-05-10T00:45:20;15.70;;;6.00;;
67696;SDS011;54486;51.442;6.778;2023-05-10T00:47:47;15.57;;;5.90;;
67696;SDS011;54486;51.442;6.778;2023-05-10T00:50:14;15.00;;;5.77;;
67696;SDS011;54486;51.442;6.778;2023-05-10T00:52:42;14.65;;;5.75;;
67696;SDS011;54486;51.442;6.778;2023-05-10T00:55:09;14.60;;;5.82;;
67696;SDS011;54486;51.442;6.778;2023-05-10T00:57:38;15.02;;;5.82;;
67696;SDS011;54486;51.442;6.778;2023-05-10T01:00:06;15.20;;;6.05;;
67696;SDS011;54486;51.442;6.778;2023-05-10T01:02:34;14.23;;;5.30;;
67696;SDS011;54486;51.442;6.778;2023-05-10T01:05:02;14.77;;;6.13;;
67696;SDS011;54486;51.442;6.778;2023-05-10T01:07:33;14.50;;;6.00;;
67696;SDS011;54486;51.442;6.778;2023-05-10T01:10:00;14.45;;;6.10;;
67696;SDS011;54486;51.442;6.778;2023-05-10T01:12:33;15.50;;;6.15;;
67696;SDS011;54486;51.442;6.778;2023-05-10T01:15:05;15.30;;;6.18;;
67696;SDS011;54486;51.442;6.778;2023-05-10T01:17:33;13.43;;;5.72;;
67696;SDS011;54486;51.442;6.778;2023-05-10T01:20:03;14.80;;;6.57;;
67696;SDS011;54486;51.442;6.778;2023-05-10T01:25:41;14.45;;;6.22;;
67696;SDS011;54486;51.442;6.778;2023-05-10T01:28:30;13.25;;;5.43;;
67696;SDS011;54486;51.442;6.778;2023-05-10T01:31:12;13.80;;;5.75;;
67696;SDS011;54486;51.442;6.778;2023-05-10T01:34:05;14.35;;;6.32;;
67696;SDS011;54486;51.442;6.778;2023-05-10T01:42:18;12.88;;;5.57;;
67696;SDS011;54486;51.442;6.778;2023-05-10T01:44:57;14.13;;;5.38;;
67696;SDS011;54486;51.442;6.778;2023-05-10T01:47:44;15.40;;;6.25;;
67696;SDS011;54486;51.442;6.778;2023-05-10T01:50:19;12.27;;;5.40;;
67696;SDS011;54486;51.442;6.778;2023-05-10T01:52:52;14.73;;;6.18;;
67696;SDS011;54486;51.442;6.778;2023-05-10T01:55:22;14.45;;;6.00;;
67696;SDS011;54486;51.442;6.778;2023-05-10T01:57:55;14.10;;;5.75;;
67696;SDS011;54486;51.442;6.778;2023-05-10T02:00:29;14.88;;;6.00;;
67696;SDS011;54486;51.442;6.778;2023-05-10T02:02:59;14.15;;;5.65;;
67696;SDS011;54486;51.442;6.778;2023-05-10T02:05:28;14.27;;;5.63;;
67696;SDS011;54486;51.442;6.778;2023-05-10T02:07:56;15.10;;;6.32;;
67696;SDS011;54486;51.442;6.778;2023-05-10T02:10:25;13.73;;;5.93;;
67696;SDS011;54486;51.442;6.778;2023-05-10T02:12:54;14.13;;;5.65;;
67696;SDS011;54486;51.442;6.778;2023-05-10T02:15:22;14.70;;;6.10;;
67696;SDS011;54486;51.442;6.778;2023-05-10T02:17:52;15.85;;;6.53;;
67696;SDS011;54486;51.442;6.778;2023-05-10T02:20:21;16.20;;;6.82;;
67696;SDS011;54486;51.442;6.778;2023-05-10T02:22:50;15.70;;;7.03;;
67696;SDS011;54486;51.442;6.778;2023-05-10T02:25:21;17.40;;;7.95;;
67696;SDS011;54486;51.442;6.778;2023-05-10T02:27:50;18.15;;;7.88;;
67696;SDS011;54486;51.442;6.778;2023-05-10T02:30:21;18.13;;;8.00;;
67696;SDS011;54486;51.442;6.778;2023-05-10T02:32:49;20.05;;;8.30;;
67696;SDS011;54486;51.442;6.778;2023-05-10T02:35:18;20.63;;;8.68;;
67696;SDS011;54486;51.442;6.778;2023-05-10T02:37:46;18.40;;;8.30;;
67696;SDS011;54486;51.442;6.778;2023-05-10T02:40:15;16.25;;;7.38;;
67696;SDS011;54486;51.442;6.778;2023-05-10T02:42:45;21.13;;;8.13;;
67696;SDS011;54486;51.442;6.778;2023-05-10T02:45:17;17.98;;;7.63;;
67696;SDS011;54486;51.442;6.778;2023-05-10T02:47:47;17.33;;;7.80;;
67696;SDS011;54486;51.442;6.778;2023-05-10T02:50:15;19.55;;;8.40;;
67696;SDS011;54486;51.442;6.778;2023-05-10T02:52:44;18.80;;;7.53;;
67696;SDS011;54486;51.442;6.778;2023-05-10T02:55:14;18.80;;;7.95;;
67696;SDS011;54486;51.442;6.778;2023-05-10T02:57:46;18.67;;;8.00;;
67696;SDS011;54486;51.442;6.778;2023-05-10T03:00:17;20.60;;;8.45;;
67696;SDS011;54486;51.442;6.778;2023-05-10T03:02:45;25.17;;;9.50;;
67696;SDS011;54486;51.442;6.778;2023-05-10T03:05:12;18.73;;;8.13;;
67696;SDS011;54486;51.442;6.778;2023-05-10T03:07:39;21.87;;;8.80;;
67696;SDS011;54486;51.442;6.778;2023-05-10T03:10:06;19.17;;;7.38;;
67696;SDS011;54486;51.442;6.778;2023-05-10T03:18:21;21.70;;;9.02;;
67696;SDS011;54486;51.442;6.778;2023-05-10T03:20:51;24.88;;;9.43;;
67696;SDS011;54486;51.442;6.778;2023-05-10T03:23:39;23.20;;;9.45;;
67696;SDS011;54486;51.442;6.778;2023-05-10T03:26:09;24.08;;;8.90;;
67696;SDS011;54486;51.442;6.778;2023-05-10T03:28:37;25.40;;;9.48;;
67696;SDS011;54486;51.442;6.778;2023-05-10T03:31:06;22.75;;;9.38;;
67696;SDS011;54486;51.442;6.778;2023-05-10T03:33:34;22.08;;;9.35;;
67696;SDS011;54486;51.442;6.778;2023-05-10T03:36:01;25.17;;;8.82;;
67696;SDS011;54486;51.442;6.778;2023-05-10T03:38:28;26.23;;;9.18;;
67696;SDS011;54486;51.442;6.778;2023-05-10T03:40:56;22.83;;;8.50;;
67696;SDS011;54486;51.442;6.778;2023-05-10T03:43:23;23.55;;;9.20;;
67696;SDS011;54486;51.442;6.778;2023-05-10T03:45:50;22.52;;;8.70;;
67696;SDS011;54486;51.442;6.778;2023-05-10T03:48:17;24.83;;;9.30;;
67696;SDS011;54486;51.442;6.778;2023-05-10T03:50:43;26.53;;;9.93;;
67696;SDS011;54486;51.442;6.778;2023-05-10T03:53:11;22.05;;;8.85;;
67696;SDS011;54486;51.442;6.778;2023-05-10T03:55:38;23.85;;;8.55;;
67696;SDS011;54486;51.442;6.778;2023-05-10T03:58:05;23.27;;;9.23;;
67696;SDS011;54486;51.442;6.778;2023-05-10T04:00:33;24.90;;;9.87;;
67696;SDS011;54486;51.442;6.778;2023-05-10T04:03:00;23.02;;;8.90;;
67696;SDS011;54486;51.442;6.778;2023-05-10T04:05:27;25.03;;;10.53;;
67696;SDS011;54486;51.442;6.778;2023-05-10T04:07:54;26.40;;;10.05;;
67696;SDS011;54486;51.442;6.778;2023-05-10T04:10:21;26.90;;;10.68;;
67696;SDS011;54486;51.442;6.778;2023-05-10T04:12:48;30.17;;;10.82;;
67696;SDS011;54486;51.442;6.778;2023-05-10T04:15:15;29.00;;;10.52;;
67696;SDS011;54486;51.442;6.778;2023-05-10T04:17:42;29.13;;;11.03;;
67696;SDS011;54486;51.442;6.778;2023-05-10T04:20:10;28.67;;;11.13;;
67696;SDS011;54486;51.442;6.778;2023-05-10T04:22:37;27.93;;;10.33;;
67696;SDS011;54486;51.442;6.778;2023-05-10T04:25:05;26.73;;;10.70;;
67696;SDS011;54486;51.442;6.778;2023-05-10T04:27:33;28.35;;;11.45;;
67696;SDS011;54486;51.442;6.778;2023-05-10T04:30:00;26.55;;;10.30;;
67696;SDS011;54486;51.442;6.778;2023-05-10T04:32:27;25.27;;;10.27;;
67696;SDS011;54486;51.442;6.778;2023-05-10T04:34:54;27.20;;;10.43;;
67696;SDS011;54486;51.442;6.778;2023-05-10T04:37:21;26.52;;;10.45;;
67696;SDS011;54486;51.442;6.778;2023-05-10T04:39:49;25.95;;;10.68;;
67696;SDS011;54486;51.442;6.778;2023-05-10T04:42:16;29.02;;;11.10;;
67696;SDS011;54486;51.442;6.778;2023-05-10T04:44:43;26.73;;;11.45;;
67696;SDS011;54486;51.442;6.778;2023-05-10T04:47:11;24.80;;;10.00;;
67696;SDS011;54486;51.442;6.778;2023-05-10T04:49:40;28.00;;;11.20;;
67696;SDS011;54486;51.442;6.778;2023-05-10T04:52:06;28.65;;;10.85;;
67696;SDS011;54486;51.442;6.778;2023-05-10T04:54:33;25.65;;;10.88;;
67696;SDS011;54486;51.442;6.778;2023-05-10T04:57:01;25.13;;;10.90;;
67696;SDS011;54486;51.442;6.778;2023-05-10T04:59:29;27.30;;;11.63;;
67696;SDS011;54486;51.442;6.778;2023-05-10T05:01:55;28.43;;;11.33;;
67696;SDS011;54486;51.442;6.778;2023-05-10T05:04:22;29.77;;;12.07;;
67696;SDS011;54486;51.442;6.778;2023-05-10T05:06:50;27.52;;;11.10;;
67696;SDS011;54486;51.442;6.778;2023-05-10T05:09:21;28.53;;;11.40;;
67696;SDS011;54486;51.442;6.778;2023-05-10T05:11:48;27.73;;;11.85;;
67696;SDS011;54486;51.442;6.778;2023-05-10T05:14:15;22.63;;;10.68;;
67696;SDS011;54486;51.442;6.778;2023-05-10T05:16:43;28.63;;;12.50;;
67696;SDS011;54486;51.442;6.778;2023-05-10T05:19:10;27.85;;;11.23;;
67696;SDS011;54486;51.442;6.778;2023-05-10T05:21:37;26.70;;;11.77;;
67696;SDS011;54486;51.442;6.778;2023-05-10T05:24:04;29.35;;;11.63;;
67696;SDS011;54486;51.442;6.778;2023-05-10T05:26:32;27.95;;;11.57;;
67696;SDS011;54486;51.442;6.778;2023-05-10T05:28:58;26.80;;;11.05;;
67696;SDS011;54486;51.442;6.778;2023-05-10T05:31:25;27.50;;;11.68;;
67696;SDS011;54486;51.442;6.778;2023-05-10T05:33:53;27.17;;;11.35;;
67696;SDS011;54486;51.442;6.778;2023-05-10T05:36:20;27.70;;;12.05;;
67696;SDS011;54486;51.442;6.778;2023-05-10T05:38:47;27.75;;;11.57;;
67696;SDS011;54486;51.442;6.778;2023-05-10T05:41:14;27.95;;;11.32;;
67696;SDS011;54486;51.442;6.778;2023-05-10T05:43:42;28.63;;;12.33;;
67696;SDS011;54486;51.442;6.778;2023-05-10T05:46:09;27.88;;;11.75;;
67696;SDS011;54486;51.442;6.778;2023-05-10T05:48:35;29.23;;;11.40;;
67696;SDS011;54486;51.442;6.778;2023-05-10T05:51:02;27.10;;;11.88;;
67696;SDS011;54486;51.442;6.778;2023-05-10T05:53:32;27.92;;;12.23;;
67696;SDS011;54486;51.442;6.778;2023-05-10T05:56:00;28.00;;;12.40;;
67696;SDS011;54486;51.442;6.778;2023-05-10T05:58:26;29.30;;;12.57;;
67696;SDS011;54486;51.442;6.778;2023-05-10T06:00:55;32.00;;;12.70;;
67696;SDS011;54486;51.442;6.778;2023-05-10T06:03:22;29.52;;;12.18;;
67696;SDS011;54486;51.442;6.778;2023-05-10T06:05:49;32.30;;;12.68;;
67696;SDS011;54486;51.442;6.778;2023-05-10T06:08:16;30.75;;;13.23;;
67696;SDS011;54486;51.442;6.778;2023-05-10T06:10:43;28.75;;;12.05;;
67696;SDS011;54486;51.442;6.778;2023-05-10T06:13:11;30.97;;;12.83;;
67696;SDS011;54486;51.442;6.778;2023-05-10T06:15:38;32.40;;;13.18;;
67696;SDS011;54486;51.442;6.778;2023-05-10T06:18:05;31.77;;;12.27;;
67696;SDS011;54486;51.442;6.778;2023-05-10T06:20:32;30.02;;;12.63;;
67696;SDS011;54486;51.442;6.778;2023-05-10T06:23:00;31.65;;;12.55;;
67696;SDS011;54486;51.442;6.778;2023-05-10T06:25:27;29.80;;;12.80;;
67696;SDS011;54486;51.442;6.778;2023-05-10T06:27:54;31.33;;;13.05;;
67696;SDS011;54486;51.442;6.778;2023-05-10T06:30:25;34.23;;;13.60;;
67696;SDS011;54486;51.442;6.778;2023-05-10T06:32:56;31.37;;;12.43;;
67696;SDS011;54486;51.442;6.778;2023-05-10T06:35:23;33.87;;;13.87;;
67696;SDS011;54486;51.442;6.778;2023-05-10T06:37:50;38.47;;;14.68;;
67696;SDS011;54486;51.442;6.778;2023-05-10T06:40:18;35.08;;;13.90;;
67696;SDS011;54486;51.442;6.778;2023-05-10T06:42:46;38.90;;;15.23;;
67696;SDS011;54486;51.442;6.778;2023-05-10T06:45:14;35.17;;;13.23;;
67696;SDS011;54486;51.442;6.778;2023-05-10T06:47:43;35.97;;;14.02;;
67696;SDS011;54486;51.442;6.778;2023-05-10T06:50:10;35.05;;;14.00;;
67696;SDS011;54486;51.442;6.778;2023-05-10T06:52:41;34.53;;;14.23;;
67696;SDS011;54486;51.442;6.778;2023-05-10T06:55:08;32.35;;;12.43;;
67696;SDS011;54486;51.442;6.778;2023-05-10T06:57:35;37.30;;;14.25;;
67696;SDS011;54486;51.442;6.778;2023-05-10T07:00:02;34.27;;;13.13;;
67696;SDS011;54486;51.442;6.778;2023-05-10T07:02:35;32.75;;;13.07;;
67696;SDS011;54486;51.442;6.778;2023-05-10T07:05:03;37.92;;;13.98;;
67696;SDS011;54486;51.442;6.778;2023-05-10T07:07:31;34.30;;;13.32;;
67696;SDS011;54486;51.442;6.778;2023-05-10T07:09:58;33.50;;;13.25;;
67696;SDS011;54486;51.442;6.778;2023-05-10T07:12:25;32.25;;;12.43;;
67696;SDS011;54486;51.442;6.778;2023-05-10T07:14:52;35.13;;;12.88;;
67696;SDS011;54486;51.442;6.778;2023-05-10T07:17:19;30.80;;;11.90;;
67696;SDS011;54486;51.442;6.778;2023-05-10T07:19:47;32.95;;;13.13;;
67696;SDS011;54486;51.442;6.778;2023-05-10T07:22:15;29.00;;;12.00;;
67696;SDS011;54486;51.442;6.778;2023-05-10T07:24:44;31.60;;;12.10;;
67696;SDS011;54486;51.442;6.778;2023-05-10T07:27:12;30.98;;;12.20;;
67696;SDS011;54486;51.442;6.778;2023-05-10T07:29:40;29.75;;;12.23;;
67696;SDS011;54486;51.442;6.778;2023-05-10T07:32:06;28.52;;;11.32;;
67696;SDS011;54486;51.442;6.778;2023-05-10T07:34:34;28.10;;;12.00;;
67696;SDS011;54486;51.442;6.778;2023-05-10T07:37:02;33.40;;;12.30;;
67696;SDS011;54486;51.442;6.778;2023-05-10T07:39:29;37.30;;;13.57;;
67696;SDS011;54486;51.442;6.778;2023-05-10T07:41:56;27.85;;;10.80;;
67696;SDS011;54486;51.442;6.778;2023-05-10T07:44:23;29.38;;;11.27;;
67696;SDS011;54486;51.442;6.778;2023-05-10T07:46:50;27.23;;;11.15;;
67696;SDS011;54486;51.442;6.778;2023-05-10T07:49:17;26.17;;;11.38;;
67696;SDS011;54486;51.442;6.778;2023-05-10T07:51:45;23.83;;;9.80;;
67696;SDS011;54486;51.442;6.778;2023-05-10T07:54:13;23.67;;;9.60;;
67696;SDS011;54486;51.442;6.778;2023-05-10T07:56:40;25.35;;;9.63;;
67696;SDS011;54486;51.442;6.778;2023-05-10T07:59:15;25.05;;;10.68;;
67696;SDS011;54486;51.442;6.778;2023-05-10T08:01:43;26.53;;;10.00;;
67696;SDS011;54486;51.442;6.778;2023-05-10T08:04:11;26.63;;;10.60;;
67696;SDS011;54486;51.442;6.778;2023-05-10T08:06:39;28.20;;;11.02;;
67696;SDS011;54486;51.442;6.778;2023-05-10T08:09:06;29.33;;;11.93;;
67696;SDS011;54486;51.442;6.778;2023-05-10T08:11:33;28.63;;;11.80;;
67696;SDS011;54486;51.442;6.778;2023-05-10T08:14:01;30.00;;;11.80;;
67696;SDS011;54486;51.442;6.778;2023-05-10T08:16:28;30.02;;;12.00;;
67696;SDS011;54486;51.442;6.778;2023-05-10T08:18:55;30.80;;;11.52;;
67696;SDS011;54486;51.442;6.778;2023-05-10T08:21:22;30.42;;;11.88;;
67696;SDS011;54486;51.442;6.778;2023-05-10T08:23:49;29.23;;;11.07;;
67696;SDS011;54486;51.442;6.778;2023-05-10T08:26:16;28.92;;;11.07;;
67696;SDS011;54486;51.442;6.778;2023-05-10T08:28:43;26.30;;;10.02;;
67696;SDS011;54486;51.442;6.778;2023-05-10T08:31:10;25.65;;;10.88;;
67696;SDS011;54486;51.442;6.778;2023-05-10T08:33:37;24.27;;;10.35;;
67696;SDS011;54486;51.442;6.778;2023-05-10T08:36:04;26.45;;;9.88;;
67696;SDS011;54486;51.442;6.778;2023-05-10T08:38:31;23.95;;;10.18;;
67696;SDS011;54486;51.442;6.778;2023-05-10T08:40:58;26.40;;;10.23;;
67696;SDS011;54486;51.442;6.778;2023-05-10T08:43:27;26.93;;;10.57;;
67696;SDS011;54486;51.442;6.778;2023-05-10T08:46:00;24.77;;;10.15;;
67696;SDS011;54486;51.442;6.778;2023-05-10T08:48:30;26.00;;;10.38;;
67696;SDS011;54486;51.442;6.778;2023-05-10T08:51:01;25.33;;;10.23;;
67696;SDS011;54486;51.442;6.778;2023-05-10T08:53:30;25.00;;;9.75;;
67696;SDS011;54486;51.442;6.778;2023-05-10T08:56:01;26.13;;;10.35;;
67696;SDS011;54486;51.442;6.778;2023-05-10T08:58:29;26.05;;;10.70;;
67696;SDS011;54486;51.442;6.778;2023-05-10T09:00:56;23.60;;;10.02;;
67696;SDS011;54486;51.442;6.778;2023-05-10T09:03:25;23.85;;;9.85;;
67696;SDS011;54486;51.442;6.778;2023-05-10T09:05:53;25.58;;;9.73;;
67696;SDS011;54486;51.442;6.778;2023-05-10T09:08:20;25.45;;;10.43;;
67696;SDS011;54486;51.442;6.778;2023-05-10T09:10:47;26.70;;;11.30;;
67696;SDS011;54486;51.442;6.778;2023-05-10T09:13:15;23.47;;;10.20;;
67696;SDS011;54486;51.442;6.778;2023-05-10T09:15:44;21.63;;;8.60;;
67696;SDS011;54486;51.442;6.778;2023-05-10T09:18:12;22.03;;;8.37;;
67696;SDS011;54486;51.442;6.778;2023-05-10T09:20:39;20.10;;;8.60;;
67696;SDS011;54486;51.442;6.778;2023-05-10T09:23:07;22.30;;;9.10;;
67696;SDS011;54486;51.442;6.778;2023-05-10T09:25:34;22.02;;;9.23;;
67696;SDS011;54486;51.442;6.778;2023-05-10T09:28:02;19.10;;;8.17;;
67696;SDS011;54486;51.442;6.778;2023-05-10T09:30:33;20.83;;;8.70;;
67696;SDS011;54486;51.442;6.778;2023-05-10T09:33:01;18.73;;;7.70;;
67696;SDS011;54486;51.442;6.778;2023-05-10T09:35:29;19.67;;;8.55;;
67696;SDS011;54486;51.442;6.778;2023-05-10T09:37:59;19.48;;;8.30;;
67696;SDS011;54486;51.442;6.778;2023-05-10T09:40:28;18.25;;;8.10;;
67696;SDS011;54486;51.442;6.778;2023-05-10T09:42:57;17.25;;;7.45;;
67696;SDS011;54486;51.442;6.778;2023-05-10T09:45:34;20.33;;;8.10;;
67696;SDS011;54486;51.442;6.778;2023-05-10T09:48:05;18.95;;;8.50;;
67696;SDS011;54486;51.442;6.778;2023-05-10T09:50:33;18.80;;;7.93;;
67696;SDS011;54486;51.442;6.778;2023-05-10T09:53:02;20.67;;;8.67;;
67696;SDS011;54486;51.442;6.778;2023-05-10T09:55:40;19.38;;;8.57;;
67696;SDS011;54486;51.442;6.778;2023-05-10T09:58:14;18.00;;;8.73;;
67696;SDS011;54486;51.442;6.778;2023-05-10T10:00:43;19.73;;;9.25;;
67696;SDS011;54486;51.442;6.778;2023-05-10T10:03:14;21.23;;;9.40;;
67696;SDS011;54486;51.442;6.778;2023-05-10T10:05:43;22.92;;;9.75;;
67696;SDS011;54486;51.442;6.778;2023-05-10T10:08:12;19.95;;;9.45;;
67696;SDS011;54486;51.442;6.778;2023-05-10T10:10:41;21.30;;;9.10;;
67696;SDS011;54486;51.442;6.778;2023-05-10T10:13:12;21.02;;;8.68;;
67696;SDS011;54486;51.442;6.778;2023-05-10T10:15:40;18.13;;;7.10;;
67696;SDS011;54486;51.442;6.778;2023-05-10T10:18:11;20.02;;;8.70;;
67696;SDS011;54486;51.442;6.778;2023-05-10T10:20:40;21.38;;;8.32;;
67696;SDS011;54486;51.442;6.778;2023-05-10T10:23:07;19.85;;;8.13;;
67696;SDS011;54486;51.442;6.778;2023-05-10T10:25:35;18.48;;;8.30;;
67696;SDS011;54486;51.442;6.778;2023-05-10T10:28:16;18.50;;;8.10;;
67696;SDS011;54486;51.442;6.778;2023-05-10T10:30:53;18.80;;;8.05;;
67696;SDS011;54486;51.442;6.778;2023-05-10T10:36:12;18.30;;;7.78;;
67696;SDS011;54486;51.442;6.778;2023-05-10T10:47:00;20.33;;;8.43;;
67696;SDS011;54486;51.442;6.778;2023-05-10T10:49:32;20.17;;;8.73;;
67696;SDS011;54486;51.442;6.778;2023-05-10T10:52:14;19.65;;;8.65;;
67696;SDS011;54486;51.442;6.778;2023-05-10T10:54:51;19.23;;;9.27;;
67696;SDS011;54486;51.442;6.778;2023-05-10T11:02:51;22.45;;;10.27;;
67696;SDS011;54486;51.442;6.778;2023-05-10T11:07:55;21.25;;;9.73;;
67696;SDS011;54486;51.442;6.778;2023-05-10T11:10:24;20.27;;;9.60;;
67696;SDS011;54486;51.442;6.778;2023-05-10T11:13:01;21.92;;;10.07;;
67696;SDS011;54486;51.442;6.778;2023-05-10T11:15:34;19.92;;;9.13;;
67696;SDS011;54486;51.442;6.778;2023-05-10T11:18:19;21.13;;;9.23;;
67696;SDS011;54486;51.442;6.778;2023-05-10T11:20:50;19.92;;;9.50;;
67696;SDS011;54486;51.442;6.778;2023-05-10T11:23:18;21.70;;;9.63;;
67696;SDS011;54486;51.442;6.778;2023-05-10T11:25:47;17.87;;;8.27;;
67696;SDS011;54486;51.442;6.778;2023-05-10T11:28:17;18.10;;;8.13;;
67696;SDS011;54486;51.442;6.778;2023-05-10T11:30:45;15.35;;;7.45;;
67696;SDS011;54486;51.442;6.778;2023-05-10T11:33:16;17.80;;;7.70;;
67696;SDS011;54486;51.442;6.778;2023-05-10T11:35:46;14.67;;;7.03;;
67696;SDS011;54486;51.442;6.778;2023-05-10T11:38:13;15.53;;;7.53;;
67696;SDS011;54486;51.442;6.778;2023-05-10T11:40:41;15.20;;;7.63;;
67696;SDS011;54486;51.442;6.778;2023-05-10T11:43:08;16.13;;;7.32;;
67696;SDS011;54486;51.442;6.778;2023-05-10T11:45:36;14.23;;;7.20;;
67696;SDS011;54486;51.442;6.778;2023-05-10T11:48:04;13.73;;;6.40;;
67696;SDS011;54486;51.442;6.778;2023-05-10T11:50:31;13.93;;;6.80;;
67696;SDS011;54486;51.442;6.778;2023-05-10T11:52:59;12.80;;;5.75;;
67696;SDS011;54486;51.442;6.778;2023-05-10T11:55:26;12.18;;;5.85;;
67696;SDS011;54486;51.442;6.778;2023-05-10T11:57:54;12.85;;;5.30;;
67696;SDS011;54486;51.442;6.778;2023-05-10T12:00:21;10.68;;;5.20;;
67696;SDS011;54486;51.442;6.778;2023-05-10T12:02:48;13.13;;;5.35;;
67696;SDS011;54486;51.442;6.778;2023-05-10T12:05:18;11.35;;;5.00;;
67696;SDS011;54486;51.442;6.778;2023-05-10T12:07:46;12.03;;;5.00;;
67696;SDS011;54486;51.442;6.778;2023-05-10T12:10:15;11.98;;;5.38;;
67696;SDS011;54486;51.442;6.778;2023-05-10T12:12:51;11.53;;;4.90;;
67696;SDS011;54486;51.442;6.778;2023-05-10T12:15:23;10.50;;;5.03;;
67696;SDS011;54486;51.442;6.778;2023-05-10T12:17:51;12.30;;;5.13;;
67696;SDS011;54486;51.442;6.778;2023-05-10T12:20:20;11.10;;;4.40;;
67696;SDS011;54486;51.442;6.778;2023-05-10T12:22:52;10.10;;;4.70;;
67696;SDS011;54486;51.442;6.778;2023-05-10T12:25:22;12.07;;;4.93;;
67696;SDS011;54486;51.442;6.778;2023-05-10T12:27:51;12.85;;;4.97;;
67696;SDS011;54486;51.442;6.778;2023-05-10T12:30:22;9.85;;;4.38;;
67696;SDS011;54486;51.442;6.778;2023-05-10T12:32:51;10.10;;;4.35;;
67696;SDS011;54486;51.442;6.778;2023-05-10T12:35:19;9.85;;;4.55;;
67696;SDS011;54486;51.442;6.778;2023-05-10T12:37:50;11.18;;;4.85;;
67696;SDS011;54486;51.442;6.778;2023-05-10T12:40:18;13.27;;;5.13;;
67696;SDS011;54486;51.442;6.778;2023-05-10T12:42:46;13.00;;;4.40;;
67696;SDS011;54486;51.442;6.778;2023-05-10T12:45:16;10.75;;;4.68;;
67696;SDS011;54486;51.442;6.778;2023-05-10T12:47:45;11.20;;;4.45;;
67696;SDS011;54486;51.442;6.778;2023-05-10T12:50:13;9.68;;;4.68;;
67696;SDS011;54486;51.442;6.778;2023-05-10T12:52:40;10.48;;;4.55;;
67696;SDS011;54486;51.442;6.778;2023-05-10T12:55:07;12.57;;;4.47;;
67696;SDS011;54486;51.442;6.778;2023-05-10T12:57:35;9.68;;;4.38;;
67696;SDS011;54486;51.442;6.778;2023-05-10T13:00:02;9.65;;;3.80;;
67696;SDS011;54486;51.442;6.778;2023-05-10T13:02:33;9.57;;;4.25;;
67696;SDS011;54486;51.442;6.778;2023-05-10T13:05:00;9.18;;;4.18;;
67696;SDS011;54486;51.442;6.778;2023-05-10T13:07:28;9.27;;;3.83;;
67696;SDS011;54486;51.442;6.778;2023-05-10T13:09:56;9.57;;;4.37;;
67696;SDS011;54486;51.442;6.778;2023-05-10T13:12:23;9.15;;;3.72;;
67696;SDS011;54486;51.442;6.778;2023-05-10T13:14:51;11.32;;;4.50;;
67696;SDS011;54486;51.442;6.778;2023-05-10T13:17:19;10.10;;;4.17;;
67696;SDS011;54486;51.442;6.778;2023-05-10T13:19:46;10.20;;;4.30;;
67696;SDS011;54486;51.442;6.778;2023-05-10T13:22:15;9.73;;;4.37;;
67696;SDS011;54486;51.442;6.778;2023-05-10T13:24:55;9.10;;;3.70;;
67696;SDS011;54486;51.442;6.778;2023-05-10T13:27:22;9.80;;;4.13;;
67696;SDS011;54486;51.442;6.778;2023-05-10T13:29:49;8.98;;;3.80;;
67696;SDS011;54486;51.442;6.778;2023-05-10T13:32:17;9.60;;;3.88;;
67696;SDS011;54486;51.442;6.778;2023-05-10T13:34:46;9.05;;;4.10;;
67696;SDS011;54486;51.442;6.778;2023-05-10T13:37:13;9.02;;;3.58;;
67696;SDS011;54486;51.442;6.778;2023-05-10T13:39:40;8.73;;;3.42;;
67696;SDS011;54486;51.442;6.778;2023-05-10T13:42:08;9.50;;;4.13;;
67696;SDS011;54486;51.442;6.778;2023-05-10T13:44:36;10.63;;;4.43;;
67696;SDS011;54486;51.442;6.778;2023-05-10T13:47:05;10.50;;;4.57;;
67696;SDS011;54486;51.442;6.778;2023-05-10T13:49:32;8.48;;;3.88;;
67696;SDS011;54486;51.442;6.778;2023-05-10T13:52:06;9.70;;;4.13;;
67696;SDS011;54486;51.442;6.778;2023-05-10T13:54:37;9.13;;;4.38;;
67696;SDS011;54486;51.442;6.778;2023-05-10T13:57:06;9.70;;;4.45;;
67696;SDS011;54486;51.442;6.778;2023-05-10T13:59:33;9.00;;;4.65;;
67696;SDS011;54486;51.442;6.778;2023-05-10T14:02:00;9.40;;;4.40;;
67696;SDS011;54486;51.442;6.778;2023-05-10T14:04:29;9.57;;;4.35;;
67696;SDS011;54486;51.442;6.778;2023-05-10T14:06:57;10.13;;;4.63;;
67696;SDS011;54486;51.442;6.778;2023-05-10T14:09:25;9.17;;;3.97;;
67696;SDS011;54486;51.442;6.778;2023-05-10T14:11:52;9.27;;;3.78;;
67696;SDS011;54486;51.442;6.778;2023-05-10T14:14:19;9.98;;;4.63;;
67696;SDS011;54486;51.442;6.778;2023-05-10T14:16:46;11.60;;;5.80;;
67696;SDS011;54486;51.442;6.778;2023-05-10T14:19:14;10.90;;;5.10;;
67696;SDS011;54486;51.442;6.778;2023-05-10T14:21:41;10.52;;;5.03;;
67696;SDS011;54486;51.442;6.778;2023-05-10T14:24:09;9.90;;;5.03;;
67696;SDS011;54486;51.442;6.778;2023-05-10T14:26:36;9.35;;;4.72;;
67696;SDS011;54486;51.442;6.778;2023-05-10T14:29:02;10.50;;;4.70;;
67696;SDS011;54486;51.442;6.778;2023-05-10T14:31:31;10.18;;;4.60;;
67696;SDS011;54486;51.442;6.778;2023-05-10T14:33:59;11.25;;;5.45;;
67696;SDS011;54486;51.442;6.778;2023-05-10T14:36:25;10.57;;;5.00;;
67696;SDS011;54486;51.442;6.778;2023-05-10T14:38:52;10.32;;;4.93;;
67696;SDS011;54486;51.442;6.778;2023-05-10T14:41:19;10.47;;;5.30;;
67696;SDS011;54486;51.442;6.778;2023-05-10T14:43:47;10.07;;;4.88;;
67696;SDS011;54486;51.442;6.778;2023-05-10T14:46:15;12.35;;;6.18;;
67696;SDS011;54486;51.442;6.778;2023-05-10T14:48:42;11.77;;;5.50;;
67696;SDS011;54486;51.442;6.778;2023-05-10T14:51:09;12.07;;;5.63;;
67696;SDS011;54486;51.442;6.778;2023-05-10T14:53:36;12.43;;;6.10;;
67696;SDS011;54486;51.442;6.778;2023-05-10T14:56:03;12.20;;;5.93;;
67696;SDS011;54486;51.442;6.778;2023-05-10T14:58:31;13.65;;;6.40;;
67696;SDS011;54486;51.442;6.778;2023-05-10T15:01:00;13.05;;;6.10;;
67696;SDS011;54486;51.442;6.778;2023-05-10T15:03:29;13.60;;;6.45;;
67696;SDS011;54486;51.442;6.778;2023-05-10T15:05:57;12.13;;;5.85;;
67696;SDS011;54486;51.442;6.778;2023-05-10T15:08:24;12.70;;;6.13;;
67696;SDS011;54486;51.442;6.778;2023-05-10T15:10:51;13.73;;;6.85;;
67696;SDS011;54486;51.442;6.778;2023-05-10T15:13:18;12.63;;;6.10;;